createdAt,value
2023-05-11T00:01:12.977Z,9.53
2023-05-11T00:03:39.652Z,8.80
2023-05-11T00:06:06.559Z,8.83
2023-05-11T00:08:33.302Z,9.03
2023-05-11T00:11:03.024Z,9.03
2023-05-11T00:13:29.762Z,9.53
2023-05-11T00:15:56.710Z,9.70
2023-05-11T00:18:23.577Z,9.57
2023-05-11T00:20:50.345Z,9.37
2023-05-11T00:23:17.122Z,10.13
2023-05-11T00:25:43.886Z,9.97
2023-05-11T00:28:14.149Z,9.67
2023-05-11T00:30:41.429Z,9.90
2023-05-11T00:33:08.110Z,10.57
2023-05-11T00:35:34.828Z,10.53
2023-05-11T00:38:01.532Z,9.90
2023-05-11T00:40:28.536Z,10.10
2023-05-11T00:42:55.386Z,10.13
2023-05-11T00:45:22.052Z,10.07
2023-05-11T00:47:48.772Z,10.17
2023-05-11T00:50:15.980Z,9.57
2023-05-11T00:52:43.058Z,10.00
2023-05-11T00:55:10.379Z,10.33
2023-05-11T00:57:38.811Z,10.67
2023-05-11T01:00:07.229Z,10.60
2023-05-11T01:02:34.248Z,10.43
2023-05-11T01:05:03.602Z,10.07
2023-05-11T01:07:37.233Z,10.80
2023-05-11T01:10:13.958Z,10.47
2023-05-11T01:13:04.938Z,9.93
2023-05-11T01:15:42.223Z,9.63
2023-05-11T01:18:08.863Z,10.67
2023-05-11T01:20:36.077Z,10.87
2023-05-11T01:23:14.374Z,11.10
2023-05-11T01:26:04.312Z,10.50
2023-05-11T01:29:10.752Z,11.37
2023-05-11T01:31:42.496Z,11.80
2023-05-11T01:34:19.383Z,11.60
2023-05-11T01:36:58.555Z,12.10
2023-05-11T01:39:32.261Z,12.00
2023-05-11T01:42:06.685Z,12.23
2023-05-11T01:44:35.544Z,12.73
2023-05-11T01:47:03.555Z,11.37
2023-05-11T01:49:35.304Z,11.90
2023-05-11T01:52:04.102Z,11.83
2023-05-11T01:54:32.089Z,13.27
2023-05-11T01:57:00.757Z,12.30
2023-05-11T01:59:29.014Z,12.80
2023-05-11T02:01:58.017Z,13.37
2023-05-11T02:04:26.668Z,13.87
2023-05-11T02:06:55.190Z,13.07
2023-05-11T02:09:23.097Z,14.10
2023-05-11T02:11:51.101Z,13.50
2023-05-11T02:14:19.957Z,12.30
2023-05-11T02:16:48.054Z,12.57
2023-05-11T02:19:15.698Z,12.60
2023-05-11T02:21:46.188Z,13.30
2023-05-11T02:24:13.213Z,12.07
2023-05-11T02:26:39.940Z,13.20
2023-05-11T02:29:06.708Z,13.50
2023-05-11T02:31:40.300Z,11.93
2023-05-11T02:34:19.051Z,12.60
2023-05-11T02:36:48.348Z,12.60
2023-05-11T02:39:21.969Z,11.20
2023-05-11T02:41:57.076Z,12.97
2023-05-11T02:44:31.027Z,12.30
2023-05-11T02:47:01.526Z,12.80
2023-05-11T02:49:30.914Z,11.73
2023-05-11T02:52:01.158Z,12.20
2023-05-11T02:54:29.360Z,11.67
2023-05-11T02:56:56.728Z,11.47
2023-05-11T02:59:24.837Z,10.67
2023-05-11T03:01:53.019Z,11.87
2023-05-11T03:04:19.770Z,11.67
2023-05-11T03:06:46.700Z,11.03
2023-05-11T03:09:13.740Z,11.03
2023-05-11T03:11:41.245Z,11.90
2023-05-11T03:14:08.343Z,12.07
2023-05-11T03:16:37.510Z,12.17
2023-05-11T03:19:09.321Z,11.33
2023-05-11T03:21:37.665Z,12.80
2023-05-11T03:24:07.139Z,13.30
2023-05-11T03:26:35.240Z,12.80
2023-05-11T03:29:03.194Z,13.57
2023-05-11T03:31:30.038Z,13.87
2023-05-11T03:33:57.527Z,15.17
2023-05-11T03:36:25.515Z,13.83
2023-05-11T03:38:56.528Z,15.10
2023-05-11T03:41:25.936Z,16.33
2023-05-11T03:43:54.459Z,16.93
2023-05-11T03:46:22.793Z,17.30
2023-05-11T03:48:50.735Z,19.00
2023-05-11T03:51:17.524Z,17.30
2023-05-11T03:53:44.349Z,18.17
2023-05-11T03:56:11.362Z,17.80
2023-05-11T03:58:40.510Z,16.63
2023-05-11T04:01:10.977Z,18.27
2023-05-11T04:03:51.245Z,18.53
2023-05-11T04:06:19.133Z,17.50
2023-05-11T04:08:46.018Z,17.63
2023-05-11T04:11:12.680Z,18.17
2023-05-11T04:13:39.423Z,18.03
2023-05-11T04:16:06.637Z,19.60
2023-05-11T04:18:33.487Z,17.43
2023-05-11T04:21:00.300Z,17.00
2023-05-11T04:23:26.971Z,17.47
2023-05-11T04:25:57.392Z,17.73
2023-05-11T04:28:27.574Z,16.47
2023-05-11T04:30:55.648Z,16.57
2023-05-11T04:33:23.117Z,16.53
2023-05-11T04:35:54.408Z,17.50
2023-05-11T04:38:22.233Z,16.30
2023-05-11T04:40:50.554Z,15.63
2023-05-11T04:43:18.100Z,16.03
2023-05-11T04:45:49.378Z,16.23
2023-05-11T04:48:18.091Z,16.43
2023-05-11T04:50:47.100Z,16.40
2023-05-11T04:53:13.834Z,17.00
2023-05-11T04:55:40.778Z,15.63
2023-05-11T04:58:07.420Z,16.13
2023-05-11T05:00:34.185Z,16.53
2023-05-11T05:03:01.022Z,16.10
2023-05-11T05:05:27.777Z,17.13
2023-05-11T05:07:54.518Z,15.83
2023-05-11T05:10:21.920Z,16.70
2023-05-11T05:12:48.912Z,16.40
2023-05-11T05:15:15.611Z,16.47
2023-05-11T05:17:42.240Z,15.73
2023-05-11T05:20:09.254Z,15.60
2023-05-11T05:22:35.901Z,15.63
2023-05-11T05:25:02.586Z,17.60
2023-05-11T05:27:29.249Z,17.10
2023-05-11T05:29:58.619Z,16.10
2023-05-11T05:32:25.455Z,16.10
2023-05-11T05:34:52.473Z,16.30
2023-05-11T05:37:19.232Z,16.77
2023-05-11T05:39:48.268Z,16.93
2023-05-11T05:42:15.162Z,17.33
2023-05-11T05:44:41.925Z,16.60
2023-05-11T05:47:08.593Z,18.17
2023-05-11T05:49:35.362Z,16.93
2023-05-11T05:52:02.139Z,16.53
2023-05-11T05:54:28.934Z,16.00
2023-05-11T05:56:55.613Z,17.07
2023-05-11T05:59:24.263Z,16.43
2023-05-11T06:01:51.607Z,15.67
2023-05-11T06:04:18.638Z,15.27
2023-05-11T06:06:46.463Z,15.70
2023-05-11T06:09:13.824Z,14.73
2023-05-11T06:11:41.116Z,14.90
2023-05-11T06:14:07.743Z,13.93
2023-05-11T06:16:34.596Z,14.30
2023-05-11T06:19:01.392Z,14.27
2023-05-11T06:21:28.188Z,14.07
2023-05-11T06:23:54.866Z,15.10
2023-05-11T06:26:24.970Z,13.50
2023-05-11T06:28:52.871Z,14.50
2023-05-11T06:31:19.856Z,14.00
2023-05-11T06:33:46.561Z,13.63
2023-05-11T06:36:13.240Z,14.27
2023-05-11T06:38:39.919Z,14.68
2023-05-11T06:41:07.480Z,12.60
2023-05-11T06:43:34.242Z,13.03
2023-05-11T06:46:00.922Z,12.60
2023-05-11T06:48:29.801Z,12.73
2023-05-11T06:50:57.152Z,13.80
2023-05-11T06:53:23.826Z,13.53
2023-05-11T06:55:50.772Z,12.83
2023-05-11T06:58:20.470Z,13.13
2023-05-11T07:00:47.499Z,12.93
2023-05-11T07:03:14.314Z,13.33
2023-05-11T07:05:41.181Z,13.60
2023-05-11T07:08:07.958Z,13.70
2023-05-11T07:10:34.697Z,14.30
2023-05-11T07:13:01.331Z,13.50
2023-05-11T07:15:28.192Z,13.23
2023-05-11T07:17:55.061Z,13.30
2023-05-11T07:20:21.811Z,13.60
2023-05-11T07:22:48.606Z,13.57
2023-05-11T07:25:15.319Z,13.10
2023-05-11T07:27:42.086Z,13.00
2023-05-11T07:30:09.046Z,12.53
2023-05-11T07:32:35.923Z,12.50
2023-05-11T07:35:02.628Z,13.40
2023-05-11T07:37:29.310Z,14.20
2023-05-11T07:39:55.979Z,13.90
2023-05-11T07:42:23.098Z,13.33
2023-05-11T07:44:49.941Z,15.97
2023-05-11T07:47:18.930Z,15.53
2023-05-11T07:49:47.371Z,16.60
2023-05-11T07:52:17.140Z,16.23
2023-05-11T07:54:44.076Z,17.60
2023-05-11T07:57:14.050Z,18.83
2023-05-11T07:59:41.093Z,19.10
2023-05-11T08:02:11.467Z,16.17
2023-05-11T08:04:40.678Z,16.73
2023-05-11T08:07:07.569Z,15.07
2023-05-11T08:09:34.204Z,15.03
2023-05-11T08:12:02.201Z,13.47
2023-05-11T08:14:28.869Z,12.77
2023-05-11T08:16:55.879Z,13.07
2023-05-11T08:19:22.540Z,13.80
2023-05-11T08:21:49.487Z,13.77
2023-05-11T08:24:16.335Z,13.57
2023-05-11T08:26:43.303Z,12.87
2023-05-11T08:29:12.395Z,13.13
2023-05-11T08:31:40.410Z,13.93
2023-05-11T08:34:18.226Z,12.27
2023-05-11T08:36:46.837Z,14.47
2023-05-11T08:39:13.563Z,14.40
2023-05-11T08:41:40.440Z,19.37
2023-05-11T08:44:08.149Z,27.93
2023-05-11T08:46:38.602Z,18.57
2023-05-11T08:49:07.115Z,14.97
2023-05-11T08:51:33.801Z,13.77
2023-05-11T08:54:00.478Z,13.10
2023-05-11T08:56:29.588Z,14.97
2023-05-11T08:58:57.772Z,12.43
2023-05-11T09:01:28.342Z,12.37
2023-05-11T09:03:56.344Z,12.13
2023-05-11T09:06:25.317Z,12.27
2023-05-11T09:08:52.965Z,13.17
2023-05-11T09:11:20.099Z,12.37
2023-05-11T09:13:47.359Z,10.53
2023-05-11T09:18:50.793Z,11.10
2023-05-11T09:21:17.714Z,10.07
2023-05-11T09:23:44.866Z,10.37
2023-05-11T09:26:15.699Z,10.20
2023-05-11T09:29:02.424Z,10.73
2023-05-11T09:31:45.849Z,10.40
2023-05-11T09:34:17.214Z,10.20
2023-05-11T09:36:46.098Z,10.87
2023-05-11T09:39:15.913Z,11.80
2023-05-11T09:41:43.413Z,11.87
2023-05-11T09:44:15.256Z,11.53
2023-05-11T09:46:44.365Z,12.50
2023-05-11T09:49:12.272Z,11.90
2023-05-11T09:51:40.829Z,11.77
2023-05-11T09:54:18.049Z,13.10
2023-05-11T09:56:49.488Z,12.17
2023-05-11T09:59:18.179Z,13.10
2023-05-11T10:01:45.012Z,13.40
2023-05-11T10:04:22.943Z,12.33
2023-05-11T10:06:55.520Z,13.60
2023-05-11T10:09:27.221Z,13.53
2023-05-11T10:11:55.659Z,13.53
2023-05-11T10:14:22.690Z,12.90
2023-05-11T10:16:50.090Z,13.23
2023-05-11T10:19:17.484Z,13.07
2023-05-11T10:21:44.790Z,12.67
2023-05-11T10:24:11.867Z,12.20
2023-05-11T10:26:38.948Z,11.97
2023-05-11T10:29:05.941Z,11.47
2023-05-11T10:31:33.512Z,11.00
2023-05-11T10:34:01.917Z,10.87
2023-05-11T10:36:29.233Z,10.87
2023-05-11T10:38:56.151Z,11.10
2023-05-11T10:42:00.218Z,11.27
2023-05-11T10:45:04.175Z,11.23
2023-05-11T10:48:06.371Z,10.80
2023-05-11T10:51:00.932Z,12.07
2023-05-11T10:53:49.345Z,12.57
2023-05-11T10:56:31.720Z,12.17
2023-05-11T10:59:10.472Z,11.63
2023-05-11T11:01:39.863Z,11.67
2023-05-11T11:04:08.796Z,13.70
2023-05-11T11:06:40.504Z,14.60
2023-05-11T11:09:13.318Z,13.50
2023-05-11T11:11:50.327Z,14.63
2023-05-11T11:14:18.368Z,13.53
2023-05-11T11:17:14.276Z,13.70
2023-05-11T11:19:41.132Z,13.80
2023-05-11T11:22:37.004Z,13.30
2023-05-11T11:25:08.590Z,14.77
2023-05-11T11:27:41.466Z,14.63
2023-05-11T11:30:18.332Z,13.70
2023-05-11T11:32:46.588Z,14.87
2023-05-11T11:35:47.355Z,14.27
2023-05-11T11:38:20.531Z,17.13
2023-05-11T11:40:51.673Z,16.03
2023-05-11T11:43:24.695Z,13.53
2023-05-11T11:46:01.603Z,20.20
2023-05-11T11:48:40.513Z,15.60
2023-05-11T11:51:08.998Z,17.43
2023-05-11T11:53:43.674Z,16.30
2023-05-11T11:56:18.697Z,18.97
2023-05-11T11:58:45.281Z,16.90
2023-05-11T12:01:12.580Z,16.20
2023-05-11T12:03:41.822Z,16.60
2023-05-11T12:06:10.118Z,17.33
2023-05-11T12:08:38.887Z,17.17
2023-05-11T12:11:07.212Z,16.73
2023-05-11T12:13:35.397Z,15.93
2023-05-11T12:16:16.307Z,17.03
2023-05-11T12:18:52.832Z,17.83
2023-05-11T12:21:21.212Z,16.43
2023-05-11T12:23:56.301Z,17.33
2023-05-11T12:26:24.713Z,18.37
2023-05-11T12:29:05.962Z,17.27
2023-05-11T12:31:40.900Z,17.60
2023-05-11T12:34:15.180Z,17.47
2023-05-11T12:36:42.661Z,18.47
2023-05-11T12:39:17.637Z,16.73
2023-05-11T12:41:45.113Z,17.50
2023-05-11T12:44:12.064Z,17.10
2023-05-11T12:46:39.223Z,18.33
2023-05-11T12:49:06.593Z,18.20
2023-05-11T12:52:01.300Z,19.15
2023-05-11T12:54:38.367Z,18.67
2023-05-11T12:57:06.885Z,17.83
2023-05-11T12:59:39.399Z,20.53
2023-05-11T13:02:07.020Z,19.53
2023-05-11T13:04:33.968Z,20.38
2023-05-11T13:07:00.809Z,20.47
2023-05-11T13:09:28.144Z,20.67
2023-05-11T13:12:32.304Z,19.83
2023-05-11T13:15:07.864Z,18.93
2023-05-11T13:17:37.367Z,21.23
2023-05-11T13:20:27.946Z,20.90
2023-05-11T13:23:10.849Z,20.92
2023-05-11T13:25:46.563Z,19.63
2023-05-11T13:28:18.495Z,20.02
2023-05-11T13:30:46.681Z,19.52
2023-05-11T13:33:13.593Z,19.27
2023-05-11T13:35:41.659Z,20.27
2023-05-11T13:38:12.224Z,21.55
2023-05-11T13:40:39.211Z,20.17
2023-05-11T13:43:07.566Z,20.35
2023-05-11T13:45:36.456Z,20.88
2023-05-11T13:48:03.576Z,21.15
2023-05-11T13:50:30.795Z,21.10
2023-05-11T13:52:57.516Z,19.95
2023-05-11T13:55:25.247Z,22.80
2023-05-11T13:57:52.039Z,21.20
2023-05-11T14:00:19.708Z,21.52
2023-05-11T14:02:48.306Z,19.73
2023-05-11T14:05:15.235Z,20.10
2023-05-11T14:07:46.953Z,18.50
2023-05-11T14:10:15.623Z,20.47
2023-05-11T14:12:42.556Z,18.77
2023-05-11T14:15:09.790Z,18.67
2023-05-11T14:17:36.736Z,19.13
2023-05-11T14:20:04.359Z,19.95
2023-05-11T14:22:31.265Z,18.38
2023-05-11T14:24:58.025Z,18.70
2023-05-11T14:27:24.705Z,16.98
2023-05-11T14:29:52.178Z,17.85
2023-05-11T14:32:19.603Z,17.13
2023-05-11T14:34:46.758Z,17.50
2023-05-11T14:37:13.472Z,18.50
2023-05-11T14:39:41.365Z,16.88
2023-05-11T14:42:08.405Z,19.00
2023-05-11T14:44:35.197Z,18.13
2023-05-11T14:47:02.050Z,17.52
2023-05-11T14:49:28.864Z,17.63
2023-05-11T14:51:56.622Z,17.05
2023-05-11T14:54:23.447Z,16.92
2023-05-11T14:56:53.930Z,15.65
2023-05-11T14:59:21.946Z,14.57
2023-05-11T15:01:49.624Z,13.25
2023-05-11T15:04:16.942Z,14.32
2023-05-11T15:06:43.996Z,13.48
2023-05-11T15:09:10.821Z,13.73
2023-05-11T15:11:37.549Z,12.70
2023-05-11T15:14:05.850Z,14.23
2023-05-11T15:16:33.111Z,13.82
2023-05-11T15:19:00.111Z,14.77
2023-05-11T15:21:27.418Z,15.05
2023-05-11T15:23:54.348Z,16.13
2023-05-11T15:26:22.311Z,16.30
2023-05-11T15:28:49.264Z,17.08
2023-05-11T15:31:16.167Z,19.17
2023-05-11T15:33:43.344Z,17.20
2023-05-11T15:36:14.354Z,19.43
2023-05-11T15:38:42.568Z,20.27
2023-05-11T15:41:09.475Z,19.67
2023-05-11T15:43:36.192Z,20.57
2023-05-11T15:46:03.881Z,20.43
2023-05-11T15:48:30.834Z,20.92
2023-05-11T15:50:59.909Z,21.30
2023-05-11T15:53:27.056Z,21.27
2023-05-11T15:55:55.546Z,20.87
2023-05-11T15:58:22.553Z,19.70
2023-05-11T16:00:49.400Z,19.43
2023-05-11T16:03:16.570Z,18.57
2023-05-11T16:05:44.466Z,19.67
2023-05-11T16:08:11.292Z,18.50
2023-05-11T16:10:38.049Z,18.67
2023-05-11T16:13:04.785Z,19.27
2023-05-11T16:15:31.958Z,19.87
2023-05-11T16:17:58.820Z,20.63
2023-05-11T16:20:25.793Z,20.60
2023-05-11T16:22:52.572Z,19.47
2023-05-11T16:25:19.262Z,19.97
2023-05-11T16:27:45.873Z,19.87
2023-05-11T16:30:23.027Z,20.23
2023-05-11T16:32:51.959Z,21.93
2023-05-11T16:35:18.773Z,21.03
2023-05-11T16:37:46.717Z,20.70
2023-05-11T16:40:13.598Z,20.97
2023-05-11T16:42:40.380Z,20.57
2023-05-11T16:45:07.426Z,21.47
2023-05-11T16:47:34.214Z,22.27
2023-05-11T16:50:00.950Z,23.30
2023-05-11T16:52:27.750Z,21.13
2023-05-11T16:54:58.984Z,21.10
2023-05-11T16:57:26.052Z,21.60
2023-05-11T16:59:52.746Z,22.57
2023-05-11T17:02:19.963Z,23.17
2023-05-11T17:04:46.974Z,21.63
2023-05-11T17:07:16.076Z,19.90
2023-05-11T17:09:43.092Z,21.00
2023-05-11T17:12:13.170Z,20.23
2023-05-11T17:14:39.848Z,19.35
2023-05-11T17:17:08.122Z,19.27
2023-05-11T17:19:34.849Z,20.13
2023-05-11T17:22:01.589Z,18.63
2023-05-11T17:24:28.658Z,18.30
2023-05-11T17:26:55.540Z,19.80
2023-05-11T17:29:24.430Z,19.67
2023-05-11T17:31:51.863Z,19.20
2023-05-11T17:34:19.742Z,19.25
2023-05-11T17:36:48.416Z,18.93
2023-05-11T17:39:16.442Z,18.07
2023-05-11T17:41:43.569Z,19.43
2023-05-11T17:44:10.314Z,18.77
2023-05-11T17:46:37.015Z,19.47
2023-05-11T17:49:04.141Z,19.73
2023-05-11T17:51:31.286Z,18.00
2023-05-11T17:53:57.915Z,17.73
2023-05-11T17:56:24.620Z,18.27
2023-05-11T17:58:57.413Z,17.13
2023-05-11T18:01:24.230Z,17.77
2023-05-11T18:03:51.037Z,16.73
2023-05-11T18:06:17.798Z,17.03
2023-05-11T18:08:45.018Z,16.57
2023-05-11T18:11:12.842Z,16.03
2023-05-11T18:13:40.446Z,16.33
2023-05-11T18:16:07.515Z,15.97
2023-05-11T18:18:34.536Z,15.20
2023-05-11T18:21:05.744Z,14.40
2023-05-11T18:23:32.875Z,14.10
2023-05-11T18:25:59.632Z,14.10
2023-05-11T18:28:26.313Z,14.77
2023-05-11T18:30:54.143Z,14.77
2023-05-11T18:33:21.086Z,13.03
2023-05-11T18:35:48.104Z,14.57
2023-05-11T18:38:14.744Z,14.03
2023-05-11T18:40:41.530Z,14.20
2023-05-11T18:43:08.629Z,14.97
2023-05-11T18:45:35.308Z,13.40
2023-05-11T18:48:02.899Z,13.63
2023-05-11T18:50:30.194Z,13.97
2023-05-11T18:52:57.792Z,14.40
2023-05-11T18:55:25.314Z,12.93
2023-05-11T18:57:52.797Z,13.30
2023-05-11T19:00:20.414Z,13.40
2023-05-11T19:02:48.246Z,10.93
2023-05-11T19:05:15.168Z,9.77
2023-05-11T19:07:42.090Z,9.07
2023-05-11T19:10:09.208Z,9.00
2023-05-11T19:12:35.897Z,9.17
2023-05-11T19:15:02.581Z,9.10
2023-05-11T19:17:29.266Z,7.93
2023-05-11T19:19:59.649Z,8.27
2023-05-11T19:22:26.466Z,8.87
2023-05-11T19:24:53.188Z,8.73
2023-05-11T19:27:20.054Z,8.77
2023-05-11T19:29:50.145Z,8.13
2023-05-11T19:32:18.938Z,8.20
2023-05-11T19:34:45.829Z,8.37
2023-05-11T19:37:12.528Z,8.23
2023-05-11T19:39:39.223Z,8.10
2023-05-11T19:42:05.992Z,8.47
2023-05-11T19:44:33.230Z,7.57
2023-05-11T19:46:59.991Z,7.63
2023-05-11T19:49:27.987Z,8.30
2023-05-11T19:51:55.134Z,7.80
2023-05-11T19:54:22.348Z,7.47
2023-05-11T19:56:49.069Z,8.13
2023-05-11T19:59:15.748Z,7.70
2023-05-11T20:01:42.458Z,8.30
2023-05-11T20:04:09.391Z,6.97
2023-05-11T20:06:36.078Z,7.93
2023-05-11T20:09:02.775Z,7.53
2023-05-11T20:11:31.130Z,7.50
2023-05-11T20:14:00.730Z,7.90
2023-05-11T20:16:30.769Z,6.93
2023-05-11T20:18:59.260Z,7.23
2023-05-11T20:21:26.518Z,6.80
2023-05-11T20:23:53.478Z,7.43
2023-05-11T20:26:20.227Z,6.30
2023-05-11T20:28:46.881Z,6.77
2023-05-11T20:31:13.569Z,6.87
2023-05-11T20:36:10.442Z,5.77
2023-05-11T20:38:37.106Z,6.13
2023-05-11T20:41:03.763Z,6.50
2023-05-11T20:43:30.625Z,5.50
2023-05-11T20:46:03.376Z,6.40
2023-05-11T20:48:39.165Z,5.57
2023-05-11T20:51:07.735Z,5.57
2023-05-11T20:53:34.531Z,5.77
2023-05-11T20:56:02.796Z,5.17
2023-05-11T20:58:30.951Z,5.60
2023-05-11T21:00:57.966Z,5.40
2023-05-11T21:03:26.727Z,5.33
2023-05-11T21:05:53.820Z,5.47
2023-05-11T21:08:20.749Z,5.37
2023-05-11T21:10:47.525Z,5.10
2023-05-11T21:13:14.292Z,5.07
2023-05-11T21:15:41.323Z,5.57
2023-05-11T21:18:08.121Z,5.27
2023-05-11T21:20:34.848Z,4.57
2023-05-11T21:23:01.970Z,5.00
2023-05-11T21:25:28.631Z,5.90
2023-05-11T21:27:55.345Z,5.60
2023-05-11T21:30:24.708Z,5.70
2023-05-11T21:32:51.478Z,5.70
2023-05-11T21:35:18.677Z,6.13
2023-05-11T21:37:49.491Z,5.90
2023-05-11T21:40:17.946Z,5.93
2023-05-11T21:42:45.191Z,5.43
2023-05-11T21:45:12.139Z,6.10
2023-05-11T21:47:39.443Z,5.33
2023-05-11T21:50:08.478Z,6.23
2023-05-11T21:52:35.275Z,5.80
2023-05-11T21:55:02.004Z,5.80
2023-05-11T21:57:29.162Z,5.67
2023-05-11T21:59:55.802Z,5.80
2023-05-11T22:02:23.021Z,6.60
2023-05-11T22:04:49.900Z,5.70
2023-05-11T22:07:16.581Z,6.23
2023-05-11T22:09:43.461Z,5.17
2023-05-11T22:12:10.186Z,6.27
2023-05-11T22:14:36.770Z,5.83
2023-05-11T22:17:03.559Z,5.67
2023-05-11T22:19:30.311Z,6.03
2023-05-11T22:21:57.042Z,6.20
2023-05-11T22:24:26.924Z,5.60
2023-05-11T22:26:54.231Z,5.50
2023-05-11T22:29:22.119Z,5.43
2023-05-11T22:31:51.581Z,5.20
2023-05-11T22:34:20.974Z,5.90
2023-05-11T22:36:47.608Z,5.00
2023-05-11T22:39:14.393Z,5.50
2023-05-11T22:41:41.129Z,4.73
2023-05-11T22:44:08.397Z,4.80
2023-05-11T22:46:35.104Z,4.50
2023-05-11T22:49:01.935Z,4.63
2023-05-11T22:51:28.692Z,4.73
2023-05-11T22:53:55.392Z,4.33
2023-05-11T22:56:22.273Z,4.13
2023-05-11T22:58:49.110Z,5.37
2023-05-11T23:01:15.845Z,4.87
2023-05-11T23:03:42.803Z,4.40
2023-05-11T23:06:09.615Z,4.27
2023-05-11T23:08:36.375Z,4.63
2023-05-11T23:11:03.313Z,4.37
2023-05-11T23:13:29.995Z,4.00
2023-05-11T23:15:56.640Z,4.60
2023-05-11T23:18:23.470Z,4.70
2023-05-11T23:20:58.174Z,4.97
2023-05-11T23:23:26.785Z,4.47
2023-05-11T23:25:53.825Z,4.93
2023-05-11T23:28:20.778Z,4.10
2023-05-11T23:30:47.496Z,4.50
2023-05-11T23:33:15.061Z,4.70
2023-05-11T23:35:41.842Z,4.37
2023-05-11T23:38:08.538Z,4.60
2023-05-11T23:40:35.230Z,4.70
2023-05-11T23:43:02.029Z,4.87
2023-05-11T23:45:28.759Z,4.43
2023-05-11T23:47:55.453Z,4.67
2023-05-11T23:50:22.201Z,4.53
2023-05-11T23:52:49.664Z,4.80
2023-05-11T23:55:16.334Z,5.03
2023-05-11T23:57:43.788Z,5.43
